»·PEaware :: ASA420 KPHX-KSAN

ASA420 :: KPHX-KSAN

FLIGHT INFORMATION

Flight Status: Arrived
Operator:
Alaska Airlines
More flights by this operator :: More flights under this callsign
Pilot: Anonymous 25291 (25291)
Aircraft: BOEING 737-800
(B738)
More flights by this aircraft type
Origin: KPHX Phoenix Sky Harbor Intl
United States
Destination: KSAN San Diego Intl-Lindbergh
United States
More flights between these airports :: More routes between these airports
Route: +FYRBD1 MOHAK J2 HOGGZ LUCKI1
File this flight plan on PilotEdge
Remarks:
Altitude:
(Current/Filed)
34,000ft
Speed:
(Current/Filed)
450kts
Departed: 10-Jan-20 08:43 PM
Arrived: 10-Jan-20 09:39 PM
Distance/Time
Traveled:
264nm/0:56
Distance/Time
To Go:
Arrived

Flight Plot

Page will automatically refresh every two minutes.

Flight plan parsing failed; only flown route is shown


Map Options




Map Legend


Flown Route
Filed Route
Departure Airport
Arrival Airport
Navaid (VOR, NDB)
Fix

Horizontal Profiles

Position Reports

Time Latitude Longitude Heading Altitude Ground
Speed
10-Jan-20 20:18 33.434385 -112.013266 288 1126ft 0kts
10-Jan-20 20:19 33.434385 -112.013266 288 1126ft 0kts
10-Jan-20 20:20 33.434385 -112.013266 288 1126ft 0kts
10-Jan-20 20:21 33.434385 -112.013266 288 1126ft 0kts
10-Jan-20 20:22 33.434385 -112.013266 288 1126ft 0kts
10-Jan-20 20:23 33.434385 -112.013266 288 1126ft 0kts
10-Jan-20 20:24 33.434385 -112.013266 288 1126ft 0kts
10-Jan-20 20:25 33.434385 -112.013266 288 1126ft 0kts
10-Jan-20 20:26 33.434385 -112.013266 288 1126ft 0kts
10-Jan-20 20:27 33.434385 -112.013265 288 1126ft 0kts
10-Jan-20 20:28 33.434385 -112.013265 288 1126ft 0kts
10-Jan-20 20:29 33.434216 -112.012636 288 1127ft 0kts
10-Jan-20 20:30 33.434441 -112.012253 185 1128ft 1kts
10-Jan-20 20:31 33.434453 -112.012251 185 1128ft 0kts
10-Jan-20 20:32 33.434453 -112.012251 185 1128ft 0kts
10-Jan-20 20:33 33.434453 -112.012251 185 1128ft 0kts
10-Jan-20 20:34 33.434245 -112.012275 185 1128ft 4kts
10-Jan-20 20:35 33.433734 -112.012328 182 1128ft 0kts
10-Jan-20 20:36 33.433733 -112.012328 182 1128ft 0kts
10-Jan-20 20:37 33.433733 -112.012328 182 1128ft 0kts
10-Jan-20 20:38 33.432806 -112.012076 164 1128ft 9kts
10-Jan-20 20:39 33.432145 -112.007207 90 1130ft 24kts
10-Jan-20 20:40 33.432141 -111.996860 90 1126ft 34kts
10-Jan-20 20:41 33.432108 -111.993888 107 1126ft 3kts
10-Jan-20 20:42 33.431050 -111.997803 269 1126ft 72kts
10-Jan-20 20:43 33.430605 -112.046233 267 1940ft 183kts
10-Jan-20 20:44 33.417423 -112.111131 250 3973ft 211kts
10-Jan-20 20:45 33.394025 -112.180095 250 6324ft 233kts
10-Jan-20 20:46 33.340570 -112.221177 153 8693ft 291kts
10-Jan-20 20:47 33.279587 -112.151369 147 11020ft 332kts
10-Jan-20 20:48 33.197048 -112.189759 243 13246ft 356kts
10-Jan-20 20:49 33.146226 -112.295547 244 16226ft 370kts
10-Jan-20 20:50 33.091467 -112.404755 245 19039ft 382kts
10-Jan-20 20:51 33.036373 -112.514664 246 21588ft 393kts
10-Jan-20 20:52 32.979683 -112.627688 246 23914ft 402kts
10-Jan-20 20:53 32.944666 -112.751643 270 26038ft 390kts
10-Jan-20 20:54 32.928413 -112.883119 267 28030ft 400kts
10-Jan-20 20:55 32.910752 -113.013116 265 29735ft 408kts
10-Jan-20 20:56 32.892329 -113.147777 265 31458ft 412kts
10-Jan-20 20:57 32.873761 -113.282400 265 33405ft 405kts
10-Jan-20 20:58 32.855294 -113.415344 265 34237ft 402kts
10-Jan-20 20:59 32.836431 -113.550332 265 34241ft 427kts
10-Jan-20 21:00 32.817076 -113.687120 264 34256ft 429kts
10-Jan-20 21:01 32.796487 -113.828762 265 34264ft 429kts
10-Jan-20 21:02 32.776946 -113.967524 268 34253ft 426kts
10-Jan-20 21:03 32.775997 -114.108243 276 34253ft 422kts
10-Jan-20 21:04 32.782119 -114.248106 276 34251ft 422kts
10-Jan-20 21:05 32.790058 -114.387212 284 34255ft 418kts
10-Jan-20 21:06 32.824443 -114.520504 290 34249ft 416kts
10-Jan-20 21:07 32.860854 -114.652844 289 34253ft 416kts
10-Jan-20 21:08 32.878237 -114.789876 272 34266ft 424kts
10-Jan-20 21:09 32.875012 -114.921409 273 34262ft 373kts
10-Jan-20 21:10 32.872171 -115.048855 272 33404ft 380kts
10-Jan-20 21:11 32.869206 -115.174341 272 32373ft 378kts
10-Jan-20 21:12 32.866103 -115.298880 272 30929ft 369kts
10-Jan-20 21:13 32.854222 -115.418185 264 28945ft 365kts
10-Jan-20 21:14 32.836517 -115.536893 263 26811ft 363kts
10-Jan-20 21:15 32.817049 -115.654949 263 24713ft 358kts
10-Jan-20 21:16 32.798030 -115.770713 263 22682ft 353kts
10-Jan-20 21:17 32.782207 -115.885561 268 20705ft 345kts
10-Jan-20 21:18 32.773927 -115.999334 268 18789ft 338kts
10-Jan-20 21:19 32.765479 -116.111633 268 16654ft 338kts
10-Jan-20 21:20 32.757022 -116.222480 268 14857ft 327kts
10-Jan-20 21:21 32.748720 -116.329182 267 13159ft 317kts
10-Jan-20 21:22 32.740657 -116.432686 267 11509ft 308kts
10-Jan-20 21:23 32.732327 -116.533149 265 10088ft 295kts
10-Jan-20 21:24 32.723081 -116.627422 266 8902ft 282kts
10-Jan-20 21:25 32.715357 -116.718137 266 7509ft 279kts
10-Jan-20 21:26 32.708803 -116.801677 265 6221ft 276kts
10-Jan-20 21:27 32.690338 -116.887640 268 5015ft 247kts
10-Jan-20 21:28 32.692644 -116.958669 275 4574ft 218kts
10-Jan-20 21:29 32.717482 -117.020018 342 4370ft 223kts
10-Jan-20 21:30 32.762049 -116.982645 91 4996ft 235kts
10-Jan-20 21:31 32.747956 -116.906135 115 4979ft 236kts
10-Jan-20 21:32 32.687614 -116.884683 181 4129ft 237kts
10-Jan-20 21:33 32.628029 -116.905736 245 3790ft 235kts
10-Jan-20 21:34 32.650453 -116.972400 319 3788ft 227kts
10-Jan-20 21:35 32.694695 -117.024892 291 3307ft 227kts
10-Jan-20 21:36 32.711671 -117.100340 282 1944ft 220kts
10-Jan-20 21:37 32.729067 -117.170959 282 257ft 203kts
10-Jan-20 21:38 32.734366 -117.194361 257 23ft 6kts
10-Jan-20 21:39 32.734267 -117.194727 232 23ft 0kts

Navigation Log

Ident Type
Flight plan parsing failed, navigation log unavailable